Time;durP1;ratioP1;P1;durP2;ratioP2;P2;SDS_P1;SDS_P2;PMS_P1;PMS_P2;Temp;Humidity;BMP_temperature;BMP_pressure;BME280_temperature;BME280_humidity;BME280_pressure;Samples;Min_cycle;Max_cycle;Signal;HPM_P1;HPM_P2
2021/07/26 00:01:02;;;;;;;7.40;6.80;;;18.60;99.90;;;;;;5057184;28;20454;-82
2021/07/26 00:03:28;;;;;;;8.03;7.43;;;18.60;99.90;;;;;;5058748;28;20556;-81
2021/07/26 00:05:56;;;;;;;7.30;6.60;;;18.60;99.90;;;;;;5058725;28;20450;-80
2021/07/26 00:08:23;;;;;;;7.20;6.70;;;18.50;99.90;;;;;;5058412;28;20461;-81
2021/07/26 00:10:57;;;;;;;11.80;7.30;;;18.60;99.90;;;;;;5058694;28;20446;-79
2021/07/26 00:13:25;;;;;;;7.60;6.50;;;18.50;99.90;;;;;;5059214;28;20449;-78
2021/07/26 00:15:52;;;;;;;7.70;7.00;;;18.50;99.90;;;;;;5058756;28;20509;-80
2021/07/26 00:18:19;;;;;;;7.93;7.20;;;18.50;99.90;;;;;;5058483;28;20458;-81
2021/07/26 00:20:45;;;;;;;7.83;7.10;;;18.50;99.90;;;;;;5058115;28;20478;-80
2021/07/26 00:23:12;;;;;;;9.07;8.27;;;18.50;99.90;;;;;;5057506;28;20548;-80
2021/07/26 00:25:39;;;;;;;11.70;7.80;;;18.50;99.90;;;;;;5057794;28;20462;-80
2021/07/26 00:28:08;;;;;;;9.20;8.40;;;18.50;99.90;;;;;;5057992;28;20951;-81
2021/07/26 00:30:37;;;;;;;8.77;7.97;;;18.50;99.90;;;;;;5058293;28;20459;-81
2021/07/26 00:36:06;;;;;;;8.93;8.13;;;18.40;99.90;;;;;;5047852;28;20433;-81
2021/07/26 00:38:32;;;;;;;10.27;9.23;;;18.40;99.90;;;;;;5057841;28;20444;-80
2021/07/26 00:40:59;;;;;;;9.60;7.73;;;18.40;99.90;;;;;;5057586;28;20455;-81
2021/07/26 00:43:26;;;;;;;7.47;6.87;;;18.30;99.90;;;;;;5057205;28;20491;-80
2021/07/26 00:45:54;;;;;;;8.83;8.10;;;18.30;99.90;;;;;;5057132;28;20450;-80
2021/07/26 00:48:20;;;;;;;6.80;6.20;;;18.30;99.90;;;;;;5057545;28;20466;-81
2021/07/26 00:50:47;;;;;;;8.10;7.40;;;18.30;99.90;;;;;;5057119;28;20455;-81
2021/07/26 00:53:14;;;;;;;8.87;8.03;;;18.20;99.90;;;;;;5057557;28;20454;-81
2021/07/26 00:55:41;;;;;;;9.97;8.03;;;18.20;99.90;;;;;;5057332;28;20528;-81
2021/07/26 00:58:08;;;;;;;7.80;7.10;;;18.20;99.90;;;;;;5057782;28;20505;-81
2021/07/26 01:00:35;;;;;;;6.77;6.17;;;18.20;99.90;;;;;;5056853;28;20831;-81
2021/07/26 01:03:03;;;;;;;8.00;7.20;;;18.20;99.90;;;;;;5056546;28;20917;-81
2021/07/26 01:05:29;;;;;;;8.97;8.00;;;18.10;99.90;;;;;;5057302;28;20450;-81
2021/07/26 01:07:56;;;;;;;7.40;6.73;;;18.00;99.90;;;;;;5056772;28;20451;-81
2021/07/26 01:10:23;;;;;;;8.30;7.37;;;18.00;99.90;;;;;;5056647;28;20447;-81
2021/07/26 01:12:50;;;;;;;8.30;7.60;;;17.90;99.90;;;;;;5056089;28;20478;-81
2021/07/26 01:15:17;;;;;;;7.03;6.53;;;17.90;99.90;;;;;;5057151;28;20477;-81
2021/07/26 01:18:13;;;;;;;7.83;7.13;;;18.00;99.90;;;;;;5056810;28;20834;-81
2021/07/26 01:20:41;;;;;;;6.60;6.00;;;17.90;99.90;;;;;;5054938;28;20452;-80
2021/07/26 01:23:08;;;;;;;8.70;7.83;;;17.90;99.90;;;;;;5056369;28;20498;-81
2021/07/26 01:25:35;;;;;;;7.50;6.90;;;18.00;99.90;;;;;;5057360;28;20454;-81
2021/07/26 01:28:02;;;;;;;9.97;6.93;;;18.00;99.90;;;;;;5057146;28;20448;-80
2021/07/26 01:30:31;;;;;;;7.73;7.10;;;18.00;99.90;;;;;;5057345;28;20458;-81
2021/07/26 01:32:58;;;;;;;7.60;7.00;;;18.00;99.90;;;;;;5056568;28;20471;-81
2021/07/26 01:35:25;;;;;;;7.83;7.10;;;18.00;99.90;;;;;;5056567;28;20460;-80
2021/07/26 01:37:53;;;;;;;9.30;8.40;;;18.10;99.90;;;;;;5056364;28;20462;-80
2021/07/26 01:40:19;;;;;;;8.30;7.50;;;18.10;99.90;;;;;;5056877;28;20460;-80
2021/07/26 01:42:46;;;;;;;10.13;7.87;;;18.00;99.90;;;;;;5056234;28;20506;-80
2021/07/26 01:45:13;;;;;;;8.27;7.47;;;18.00;99.90;;;;;;5055851;28;21005;-79
2021/07/26 01:47:47;;;;;;;8.53;7.53;;;18.00;99.90;;;;;;5056389;28;20795;-80
2021/07/26 01:50:18;;;;;;;8.23;7.43;;;18.00;99.90;;;;;;5056657;28;20949;-80
2021/07/26 01:52:45;;;;;;;8.60;7.80;;;18.00;99.90;;;;;;5056131;28;20470;-80
2021/07/26 01:55:14;;;;;;;8.57;7.67;;;17.80;99.90;;;;;;5056812;28;20769;-80
2021/07/26 01:57:40;;;;;;;8.97;8.17;;;17.80;99.90;;;;;;5056633;28;20451;-80
2021/07/26 02:00:08;;;;;;;9.10;8.30;;;17.90;99.90;;;;;;5056374;28;20473;-80
2021/07/26 02:02:35;;;;;;;8.33;7.53;;;17.80;99.90;;;;;;5055910;28;20487;-80
2021/07/26 02:05:01;;;;;;;9.50;8.33;;;17.80;99.90;;;;;;5056526;28;20458;-80
2021/07/26 02:07:28;;;;;;;7.97;7.37;;;17.80;99.90;;;;;;5056383;28;20473;-80
2021/07/26 02:09:55;;;;;;;7.90;7.20;;;17.90;99.90;;;;;;5056333;28;20455;-81
2021/07/26 02:12:23;;;;;;;8.43;7.50;;;17.90;99.90;;;;;;5056621;28;20480;-80
2021/07/26 02:14:50;;;;;;;8.40;7.70;;;17.90;99.90;;;;;;5056753;28;20453;-81
2021/07/26 02:17:17;;;;;;;8.70;7.90;;;17.90;99.90;;;;;;5056211;28;20443;-80
2021/07/26 02:19:44;;;;;;;9.17;8.27;;;17.90;99.90;;;;;;5055959;28;20457;-80
2021/07/26 02:22:10;;;;;;;7.03;6.33;;;17.90;99.90;;;;;;5060075;28;20460;-80
2021/07/26 02:24:37;;;;;;;7.27;6.67;;;17.90;99.90;;;;;;5059618;28;20458;-80
2021/07/26 02:27:04;;;;;;;9.17;8.30;;;17.80;99.90;;;;;;5060488;28;20463;-80
2021/07/26 02:29:33;;;;;;;8.70;7.53;;;17.80;99.90;;;;;;5059830;28;20503;-80
2021/07/26 02:31:59;;;;;;;8.20;7.47;;;17.70;99.90;;;;;;5059395;28;20474;-80
2021/07/26 02:34:26;;;;;;;8.30;7.47;;;17.70;99.90;;;;;;5060138;28;20453;-80
2021/07/26 02:36:53;;;;;;;8.50;7.60;;;17.60;99.90;;;;;;5060049;28;20457;-80
2021/07/26 02:39:19;;;;;;;10.17;8.30;;;17.60;99.90;;;;;;5059479;28;20445;-80
2021/07/26 02:41:46;;;;;;;8.37;7.67;;;17.60;99.90;;;;;;5058973;28;20470;-80
2021/07/26 02:44:13;;;;;;;8.73;7.87;;;17.50;99.90;;;;;;5059686;28;20498;-80
2021/07/26 02:46:41;;;;;;;7.93;7.13;;;17.50;99.90;;;;;;5058818;28;20458;-80
2021/07/26 02:49:07;;;;;;;9.67;8.27;;;17.50;99.90;;;;;;5059552;28;20442;-82
2021/07/26 02:51:34;;;;;;;7.80;7.13;;;17.50;99.90;;;;;;5059281;28;20530;-78
2021/07/26 02:54:01;;;;;;;8.47;7.67;;;17.50;99.90;;;;;;5060493;28;20449;-80
2021/07/26 02:56:28;;;;;;;8.67;7.70;;;17.50;99.90;;;;;;5060320;28;20830;-80
2021/07/26 02:58:54;;;;;;;9.63;7.47;;;17.50;99.90;;;;;;5059557;28;20452;-80
2021/07/26 03:01:21;;;;;;;9.40;7.83;;;17.60;99.90;;;;;;5058614;28;20573;-80
2021/07/26 03:03:49;;;;;;;8.20;7.27;;;17.60;99.90;;;;;;5059580;28;20512;-80
2021/07/26 03:06:19;;;;;;;7.23;6.53;;;17.60;99.90;;;;;;5059729;28;20457;-80
2021/07/26 03:08:46;;;;;;;7.43;6.73;;;17.70;99.90;;;;;;5059239;28;20452;-79
2021/07/26 03:11:13;;;;;;;8.13;7.33;;;17.70;99.90;;;;;;5059449;28;20476;-80
2021/07/26 03:13:41;;;;;;;8.23;7.63;;;17.80;99.90;;;;;;5058958;28;20457;-80
2021/07/26 03:16:09;;;;;;;8.67;7.97;;;17.70;99.90;;;;;;5059417;28;20461;-80
2021/07/26 03:18:36;;;;;;;7.77;6.93;;;17.70;99.90;;;;;;5059507;28;20454;-80
2021/07/26 03:21:04;;;;;;;8.50;7.80;;;17.70;99.90;;;;;;5059512;28;20517;-80
2021/07/26 03:23:31;;;;;;;7.80;7.03;;;17.70;99.90;;;;;;5058258;28;20489;-80
2021/07/26 03:25:58;;;;;;;8.07;7.37;;;17.70;99.90;;;;;;5059078;28;20461;-80
2021/07/26 03:28:25;;;;;;;7.83;7.23;;;17.60;99.90;;;;;;5059543;28;20464;-80
2021/07/26 03:30:52;;;;;;;9.93;7.37;;;17.70;99.90;;;;;;5058806;28;20454;-80
2021/07/26 03:33:18;;;;;;;7.40;6.70;;;17.70;99.90;;;;;;5058089;28;20473;-81
2021/07/26 03:35:45;;;;;;;7.20;6.53;;;17.90;99.90;;;;;;5059336;28;20492;-80
2021/07/26 03:38:13;;;;;;;7.20;6.60;;;17.90;99.90;;;;;;5058907;28;20821;-81
2021/07/26 03:40:40;;;;;;;9.50;7.40;;;18.00;99.90;;;;;;5058311;28;20454;-81
2021/07/26 03:43:07;;;;;;;9.33;7.50;;;18.00;99.90;;;;;;5058822;28;20488;-81
2021/07/26 03:45:33;;;;;;;8.40;7.57;;;18.10;99.90;;;;;;5058731;28;20454;-81
2021/07/26 03:48:00;;;;;;;7.63;6.93;;;18.20;99.90;;;;;;5059132;28;20457;-81
2021/07/26 03:50:27;;;;;;;7.60;6.90;;;18.20;99.90;;;;;;5058656;28;20512;-81
2021/07/26 03:52:56;;;;;;;7.73;6.77;;;18.20;99.90;;;;;;5058375;28;20477;-82
2021/07/26 03:55:25;;;;;;;7.60;6.90;;;18.20;99.90;;;;;;5058555;28;20545;-81
2021/07/26 03:57:53;;;;;;;8.13;7.17;;;18.30;99.90;;;;;;5058856;28;20447;-80
2021/07/26 04:00:22;;;;;;;7.60;6.97;;;18.30;99.90;;;;;;5059021;28;20460;-80
2021/07/26 04:02:53;;;;;;;10.27;6.63;;;18.30;99.90;;;;;;5057913;28;20489;-80
2021/07/26 04:05:25;;;;;;;7.63;6.93;;;18.30;99.90;;;;;;5058210;28;20455;-81
2021/07/26 04:07:51;;;;;;;7.20;6.50;;;18.30;99.90;;;;;;5057820;28;20496;-79
2021/07/26 04:10:18;;;;;;;6.93;6.33;;;18.40;99.90;;;;;;5059679;28;20537;-79
2021/07/26 04:12:50;;;;;;;7.20;6.60;;;18.30;99.90;;;;;;5058983;28;20510;-78
2021/07/26 04:15:16;;;;;;;8.03;7.30;;;18.40;99.90;;;;;;5058054;28;20883;-80
2021/07/26 04:17:43;;;;;;;7.37;6.77;;;18.40;99.90;;;;;;5058047;28;20830;-80
2021/07/26 04:20:11;;;;;;;6.53;6.03;;;18.40;99.90;;;;;;5057659;28;20458;-80
2021/07/26 04:22:38;;;;;;;7.00;6.33;;;18.40;99.90;;;;;;5057129;28;20485;-81
2021/07/26 04:25:06;;;;;;;7.73;6.10;;;18.40;99.90;;;;;;5057960;28;20455;-80
2021/07/26 04:27:35;;;;;;;6.90;6.30;;;18.40;99.90;;;;;;5057539;28;20458;-80
2021/07/26 04:30:05;;;;;;;7.73;7.03;;;18.40;99.90;;;;;;5057570;28;20467;-81
2021/07/26 04:32:32;;;;;;;6.70;5.77;;;18.40;99.90;;;;;;5057264;28;20506;-81
2021/07/26 04:35:04;;;;;;;11.00;7.77;;;18.50;99.90;;;;;;5053969;28;20450;-78
2021/07/26 04:37:31;;;;;;;7.23;6.37;;;18.50;99.90;;;;;;5057772;28;20888;-81
2021/07/26 04:39:57;;;;;;;7.60;6.53;;;18.50;99.90;;;;;;5058566;28;20458;-79
2021/07/26 04:42:24;;;;;;;7.20;5.73;;;18.50;99.90;;;;;;5057529;28;20478;-79
2021/07/26 04:44:51;;;;;;;7.80;7.07;;;18.50;99.90;;;;;;5057938;28;20491;-81
2021/07/26 04:47:19;;;;;;;7.37;5.77;;;18.60;99.90;;;;;;5058021;28;21025;-80
2021/07/26 04:49:45;;;;;;;6.63;5.50;;;18.60;99.90;;;;;;5058811;28;20454;-80
2021/07/26 04:52:13;;;;;;;6.57;6.07;;;18.60;99.90;;;;;;5057264;28;20493;-81
2021/07/26 04:54:40;;;;;;;6.17;5.67;;;18.60;99.90;;;;;;5057198;28;20451;-80
2021/07/26 04:57:06;;;;;;;7.40;6.33;;;18.70;99.90;;;;;;5056855;28;20964;-81
2021/07/26 04:59:33;;;;;;;7.07;5.83;;;18.70;99.90;;;;;;5056605;28;20456;-81
2021/07/26 05:02:00;;;;;;;12.47;6.77;;;18.70;99.90;;;;;;5056782;28;20474;-81
2021/07/26 05:04:28;;;;;;;6.57;5.97;;;18.70;99.90;;;;;;5057269;28;20512;-81
2021/07/26 05:06:59;;;;;;;6.97;6.20;;;18.50;99.90;;;;;;5057086;28;20455;-80
2021/07/26 05:09:26;;;;;;;5.93;5.50;;;18.60;99.90;;;;;;5057298;28;20451;-80
2021/07/26 05:11:53;;;;;;;7.37;6.67;;;18.60;99.90;;;;;;5056840;28;20470;-80
2021/07/26 05:14:19;;;;;;;7.73;6.60;;;18.60;99.90;;;;;;5057102;28;20465;-80
2021/07/26 05:16:46;;;;;;;8.33;7.50;;;18.60;99.90;;;;;;5057474;28;20446;-80
2021/07/26 05:19:13;;;;;;;7.53;6.93;;;18.50;99.90;;;;;;5057677;28;20451;-80
2021/07/26 05:21:41;;;;;;;9.40;7.50;;;18.60;99.90;;;;;;5057022;28;21123;-80
2021/07/26 05:24:08;;;;;;;8.03;7.13;;;18.60;99.90;;;;;;5057436;28;20493;-81
2021/07/26 05:26:35;;;;;;;7.50;6.40;;;18.60;99.90;;;;;;5056910;28;20822;-81
2021/07/26 05:29:01;;;;;;;7.47;6.77;;;18.60;99.90;;;;;;5057280;28;20457;-81
2021/07/26 05:31:28;;;;;;;11.40;8.00;;;18.60;99.90;;;;;;5056460;28;20477;-81
2021/07/26 05:33:55;;;;;;;7.83;7.03;;;18.50;99.90;;;;;;5057588;28;20468;-80
2021/07/26 05:36:24;;;;;;;8.70;7.00;;;18.60;99.90;;;;;;5056669;28;20455;-82
2021/07/26 05:38:52;;;;;;;6.60;6.00;;;18.60;99.90;;;;;;5057099;28;20515;-82
2021/07/26 05:41:19;;;;;;;6.63;6.00;;;18.60;99.90;;;;;;5056784;28;20474;-81
2021/07/26 05:43:46;;;;;;;7.10;6.40;;;18.70;99.90;;;;;;5056804;28;20482;-81
2021/07/26 05:46:13;;;;;;;6.27;5.73;;;18.80;99.90;;;;;;5057079;28;20452;-81
2021/07/26 05:48:40;;;;;;;6.50;5.90;;;18.80;99.90;;;;;;5057471;28;20971;-82
2021/07/26 05:51:07;;;;;;;7.80;7.10;;;18.90;99.90;;;;;;5056562;28;20451;-81
2021/07/26 05:53:33;;;;;;;6.83;6.33;;;18.80;99.90;;;;;;5056504;28;20546;-81
2021/07/26 05:56:05;;;;;;;7.27;6.10;;;18.90;99.90;;;;;;5060209;28;20450;-80
2021/07/26 05:58:32;;;;;;;6.07;5.57;;;18.80;99.90;;;;;;5060523;28;20493;-81
2021/07/26 06:01:10;;;;;;;6.47;5.87;;;18.90;99.90;;;;;;5060052;28;20940;-81
2021/07/26 06:03:36;;;;;;;5.63;5.23;;;18.90;99.90;;;;;;5059895;28;20470;-81
2021/07/26 06:06:04;;;;;;;5.27;4.87;;;18.90;99.90;;;;;;5059869;28;20459;-81
2021/07/26 06:08:31;;;;;;;5.60;4.97;;;18.90;99.90;;;;;;5059845;28;20515;-80
2021/07/26 06:10:58;;;;;;;5.83;5.17;;;19.00;99.90;;;;;;5047994;28;20452;-80
2021/07/26 06:13:26;;;;;;;5.73;5.23;;;19.10;99.90;;;;;;5045143;28;20531;-81
2021/07/26 06:15:53;;;;;;;5.70;5.10;;;19.20;99.90;;;;;;5044910;28;20830;-81
2021/07/26 06:18:20;;;;;;;5.63;5.10;;;19.40;99.90;;;;;;5047914;28;20451;-80
2021/07/26 06:20:46;;;;;;;5.13;4.67;;;19.40;99.90;;;;;;5058530;28;20458;-80
2021/07/26 06:23:13;;;;;;;5.60;5.20;;;19.40;99.90;;;;;;5059047;28;20474;-80
2021/07/26 06:25:40;;;;;;;5.90;5.30;;;19.50;99.90;;;;;;5060796;28;20459;-79
2021/07/26 06:28:06;;;;;;;6.00;5.40;;;19.50;99.90;;;;;;5060803;28;20448;-81
2021/07/26 06:30:35;;;;;;;7.00;5.80;;;19.60;99.90;;;;;;5060592;28;20447;-81
2021/07/26 06:33:01;;;;;;;9.00;5.57;;;19.60;99.90;;;;;;5059895;28;20486;-81
2021/07/26 06:35:28;;;;;;;5.63;5.23;;;19.60;99.90;;;;;;5059591;28;20952;-81
2021/07/26 06:37:55;;;;;;;4.87;4.40;;;19.70;99.90;;;;;;5060144;28;20451;-81
2021/07/26 06:40:22;;;;;;;5.50;5.10;;;19.70;99.90;;;;;;5059912;28;20450;-82
2021/07/26 06:42:48;;;;;;;4.90;4.50;;;19.80;99.90;;;;;;5059399;28;20467;-81
2021/07/26 06:45:15;;;;;;;5.07;4.57;;;20.00;99.90;;;;;;5059092;28;20481;-83
2021/07/26 06:47:44;;;;;;;4.27;3.87;;;20.00;99.90;;;;;;5058964;28;20945;-82
2021/07/26 06:50:12;;;;;;;4.53;4.13;;;20.00;99.90;;;;;;5060498;28;20459;-83
2021/07/26 06:52:38;;;;;;;6.47;4.90;;;20.10;99.90;;;;;;5060167;28;20479;-83
2021/07/26 06:55:06;;;;;;;4.63;4.23;;;20.20;99.90;;;;;;5059573;28;20987;-84
2021/07/26 06:57:33;;;;;;;5.90;4.07;;;20.10;99.90;;;;;;5060058;28;20455;-83
2021/07/26 07:00:00;;;;;;;5.67;4.40;;;20.20;99.90;;;;;;5059736;28;20832;-84
2021/07/26 07:02:27;;;;;;;5.00;4.60;;;20.20;99.90;;;;;;5059377;28;20472;-86
2021/07/26 07:04:55;;;;;;;5.67;5.13;;;20.30;99.90;;;;;;5058772;28;20472;-85
2021/07/26 07:07:22;;;;;;;5.17;4.67;;;20.40;99.90;;;;;;5058828;28;20459;-85
2021/07/26 07:09:48;;;;;;;5.10;4.70;;;20.40;99.90;;;;;;5060198;28;20455;-84
2021/07/26 07:12:17;;;;;;;7.60;5.07;;;20.60;99.90;;;;;;5061354;28;20475;-85
2021/07/26 07:14:44;;;;;;;5.20;4.80;;;20.70;99.90;;;;;;5056806;28;20460;-84
2021/07/26 07:17:11;;;;;;;6.90;5.30;;;20.70;99.90;;;;;;5054675;28;20462;-86
2021/07/26 07:19:43;;;;;;;4.90;4.50;;;20.80;99.90;;;;;;5055393;28;20462;-85
2021/07/26 07:22:11;;;;;;;5.40;5.00;;;20.90;99.90;;;;;;5055428;28;20476;-85
2021/07/26 07:24:38;;;;;;;7.23;4.40;;;21.00;99.90;;;;;;5055008;28;20488;-85
2021/07/26 07:27:05;;;;;;;4.33;4.03;;;21.10;99.90;;;;;;5054761;28;20449;-86
2021/07/26 07:29:32;;;;;;;4.40;4.00;;;21.20;99.90;;;;;;5054400;28;20445;-86
2021/07/26 07:32:00;;;;;;;5.10;4.70;;;21.30;99.90;;;;;;5049098;28;20477;-84
2021/07/26 07:34:26;;;;;;;4.80;4.43;;;21.40;99.90;;;;;;5044690;28;20524;-85
2021/07/26 07:36:54;;;;;;;4.50;4.20;;;21.50;99.90;;;;;;5043309;28;20456;-86
2021/07/26 07:39:22;;;;;;;5.40;4.23;;;21.60;99.90;;;;;;5046428;28;20455;-83
2021/07/26 07:41:49;;;;;;;5.27;4.77;;;21.60;99.90;;;;;;5058647;28;20455;-83
2021/07/26 07:44:16;;;;;;;7.20;4.80;;;21.60;99.90;;;;;;5058247;28;20469;-82
2021/07/26 07:46:42;;;;;;;4.60;4.30;;;21.60;99.90;;;;;;5057628;28;20449;-85
2021/07/26 07:49:09;;;;;;;4.27;3.87;;;21.70;99.90;;;;;;5059242;28;20439;-83
2021/07/26 07:51:36;;;;;;;5.53;3.90;;;21.80;99.90;;;;;;5058051;28;20532;-82
2021/07/26 07:54:03;;;;;;;4.40;4.00;;;21.90;99.90;;;;;;5057948;28;20465;-83
2021/07/26 07:56:33;;;;;;;4.30;3.90;;;22.00;99.90;;;;;;5058531;28;20464;-82
2021/07/26 07:59:00;;;;;;;5.60;5.10;;;22.10;99.90;;;;;;5058160;28;20443;-82
2021/07/26 08:01:31;;;;;;;4.20;3.90;;;22.20;99.90;;;;;;5057578;28;20519;-83
2021/07/26 08:03:57;;;;;;;4.90;4.50;;;22.30;99.90;;;;;;5057253;28;20442;-84
2021/07/26 08:06:24;;;;;;;4.23;3.93;;;22.50;99.90;;;;;;5046709;28;20460;-84
2021/07/26 08:08:51;;;;;;;5.03;4.53;;;22.60;99.90;;;;;;5058951;28;20505;-82
2021/07/26 08:11:18;;;;;;;4.20;3.80;;;22.80;99.90;;;;;;5058762;28;20453;-84
2021/07/26 08:13:46;;;;;;;4.93;4.50;;;23.00;99.90;;;;;;5058129;28;20459;-83
2021/07/26 08:16:14;;;;;;;3.90;3.50;;;23.10;99.90;;;;;;5057951;28;20429;-83
2021/07/26 08:18:41;;;;;;;5.33;4.93;;;23.30;99.90;;;;;;5057530;28;20435;-84
2021/07/26 08:21:07;;;;;;;4.43;4.00;;;23.40;99.90;;;;;;5058239;28;20441;-82
2021/07/26 08:23:34;;;;;;;5.13;4.07;;;23.60;99.90;;;;;;5049415;28;20456;-84
2021/07/26 08:26:01;;;;;;;4.50;4.20;;;23.70;99.90;;;;;;5042285;28;20489;-84
2021/07/26 08:28:27;;;;;;;5.23;4.20;;;23.90;99.90;;;;;;5041749;28;20460;-83
2021/07/26 08:30:56;;;;;;;3.77;3.57;;;23.90;99.90;;;;;;5044787;28;20459;-84
2021/07/26 08:33:22;;;;;;;4.77;4.27;;;24.10;99.90;;;;;;5045288;28;20449;-85
2021/07/26 08:35:49;;;;;;;4.87;4.10;;;24.30;99.90;;;;;;5037072;28;20818;-84
2021/07/26 08:38:16;;;;;;;3.70;3.40;;;24.40;99.90;;;;;;5038922;28;20454;-84
2021/07/26 08:40:45;;;;;;;3.50;3.20;;;24.60;99.90;;;;;;5043296;28;20454;-84
2021/07/26 08:43:13;;;;;;;4.33;3.90;;;24.70;99.90;;;;;;5036159;28;20476;-84
2021/07/26 08:45:40;;;;;;;4.00;3.70;;;24.80;99.90;;;;;;5033598;28;20555;-84
2021/07/26 08:48:09;;;;;;;4.10;3.80;;;24.90;99.90;;;;;;5032994;28;20463;-83
2021/07/26 08:50:37;;;;;;;4.33;4.03;;;24.90;99.90;;;;;;5033712;28;20461;-84
2021/07/26 08:53:06;;;;;;;5.30;4.80;;;24.80;99.90;;;;;;5036638;28;20484;-85
2021/07/26 08:55:34;;;;;;;4.27;3.43;;;24.90;99.90;;;;;;5039958;28;20456;-84
2021/07/26 08:58:01;;;;;;;4.33;3.93;;;24.60;99.10;;;;;;5041968;28;20549;-84
2021/07/26 09:00:28;;;;;;;4.80;4.40;;;24.70;99.90;;;;;;5041659;28;20453;-85
2021/07/26 09:02:55;;;;;;;3.90;3.50;;;24.70;99.50;;;;;;5041055;28;20477;-85
2021/07/26 09:05:24;;;;;;;3.50;3.23;;;24.70;99.40;;;;;;5039458;28;20580;-85
2021/07/26 09:07:51;;;;;;;4.57;4.20;;;24.60;99.10;;;;;;5038840;28;20457;-84
2021/07/26 09:10:19;;;;;;;3.30;3.10;;;24.40;99.90;;;;;;5033281;28;20931;-85
2021/07/26 09:12:49;;;;;;;4.27;3.87;;;24.40;99.30;;;;;;5032044;28;20485;-84
2021/07/26 09:15:27;;;;;;;3.63;3.27;;;24.40;99.20;;;;;;5039857;28;20499;-87
2021/07/26 09:17:59;;;;;;;3.50;3.30;;;24.50;99.00;;;;;;5038499;28;20459;-88
2021/07/26 09:20:29;;;;;;;3.10;2.90;;;24.60;99.50;;;;;;5034676;28;20466;-88
2021/07/26 09:22:58;;;;;;;3.50;3.30;;;24.60;98.50;;;;;;5034755;28;20568;-87
2021/07/26 09:25:26;;;;;;;3.20;2.90;;;24.70;99.40;;;;;;5033444;28;20473;-89
2021/07/26 09:28:02;;;;;;;3.30;3.07;;;24.90;98.90;;;;;;5032892;28;20474;-88
2021/07/26 09:30:32;;;;;;;4.03;3.43;;;24.80;98.70;;;;;;5033316;28;20819;-88
2021/07/26 09:32:59;;;;;;;3.60;3.33;;;25.00;97.80;;;;;;5032766;28;20473;-87
2021/07/26 09:35:28;;;;;;;3.57;3.30;;;25.20;97.40;;;;;;5032998;28;20444;-88
2021/07/26 09:37:59;;;;;;;3.47;3.20;;;25.30;97.00;;;;;;5033446;28;20481;-88
2021/07/26 09:40:32;;;;;;;3.40;3.10;;;25.20;97.50;;;;;;5033209;28;20480;-88
2021/07/26 09:43:16;;;;;;;4.27;3.63;;;25.20;97.50;;;;;;5032991;28;20537;-88
2021/07/26 09:45:42;;;;;;;4.07;3.77;;;25.20;96.80;;;;;;5032775;28;21032;-88
2021/07/26 09:48:12;;;;;;;4.30;3.67;;;25.30;96.30;;;;;;5033007;28;20459;-88
2021/07/26 09:50:42;;;;;;;3.77;3.37;;;25.20;96.80;;;;;;5033011;28;21085;-87
2021/07/26 09:53:22;;;;;;;3.60;3.40;;;25.20;96.60;;;;;;5032682;28;20842;-88
2021/07/26 09:55:50;;;;;;;2.80;2.70;;;25.40;96.50;;;;;;5032912;28;20414;-88
2021/07/26 09:58:19;;;;;;;3.27;3.07;;;25.40;95.50;;;;;;5033839;28;20509;-88
2021/07/26 10:00:47;;;;;;;3.03;2.83;;;25.30;95.40;;;;;;5037990;28;20455;-87
2021/07/26 10:03:17;;;;;;;2.90;2.70;;;25.40;94.90;;;;;;5035147;28;20472;-88
2021/07/26 10:05:45;;;;;;;3.47;3.20;;;25.50;94.50;;;;;;5035180;28;20505;-89
2021/07/26 10:08:12;;;;;;;3.33;3.03;;;25.70;95.30;;;;;;5033707;28;20497;-88
2021/07/26 10:10:41;;;;;;;3.43;3.13;;;25.80;93.20;;;;;;5033606;28;20454;-88
2021/07/26 10:13:09;;;;;;;2.93;2.73;;;25.80;94.00;;;;;;5033034;28;20482;-88
2021/07/26 10:15:37;;;;;;;4.97;3.47;;;25.90;95.00;;;;;;5032468;28;20455;-88
2021/07/26 10:18:05;;;;;;;3.00;2.80;;;26.10;95.60;;;;;;5033188;28;20459;-88
2021/07/26 10:20:36;;;;;;;3.43;3.00;;;26.30;93.00;;;;;;5032595;28;20956;-88
2021/07/26 10:23:09;;;;;;;3.20;3.00;;;26.50;92.30;;;;;;5032544;28;20495;-88
2021/07/26 10:25:40;;;;;;;2.97;2.50;;;26.60;92.30;;;;;;5032948;28;20579;-87
2021/07/26 10:28:14;;;;;;;2.80;2.60;;;26.80;93.20;;;;;;5033180;28;20536;-88
2021/07/26 10:30:40;;;;;;;2.83;2.63;;;26.80;92.30;;;;;;5033387;28;20440;-88
2021/07/26 10:33:07;;;;;;;2.60;2.40;;;26.90;90.70;;;;;;5032909;28;20564;-87
2021/07/26 10:35:39;;;;;;;3.03;2.73;;;27.00;90.20;;;;;;5032335;28;20545;-88
2021/07/26 10:38:09;;;;;;;3.43;2.70;;;27.20;90.90;;;;;;5032851;28;20996;-88
2021/07/26 10:40:41;;;;;;;3.23;3.03;;;27.50;91.80;;;;;;5032948;28;20935;-88
2021/07/26 10:43:12;;;;;;;3.50;3.20;;;27.90;91.60;;;;;;5036521;28;20494;-89
2021/07/26 10:46:00;;;;;;;3.00;2.80;;;28.30;90.00;;;;;;5035714;28;20570;-89
2021/07/26 10:48:49;;;;;;;3.17;2.87;;;28.50;86.30;;;;;;5035723;28;20833;-88
2021/07/26 10:51:38;;;;;;;2.60;2.40;;;28.60;87.80;;;;;;5036119;28;20487;-88
2021/07/26 10:54:08;;;;;;;3.30;3.10;;;28.70;87.40;;;;;;5035996;28;20472;-88
2021/07/26 10:57:12;;;;;;;3.80;3.20;;;28.70;84.90;;;;;;5035699;28;20456;-88
2021/07/26 11:00:18;;;;;;;2.80;2.60;;;28.70;84.70;;;;;;5035956;28;20459;-88
2021/07/26 11:02:46;;;;;;;3.97;2.70;;;28.80;85.20;;;;;;5035783;28;20547;-89
2021/07/26 11:05:32;;;;;;;4.50;3.63;;;28.90;85.90;;;;;;5036131;28;20473;-87
2021/07/26 11:08:25;;;;;;;2.73;2.53;;;29.30;89.60;;;;;;5036165;28;20461;-87
2021/07/26 11:10:57;;;;;;;3.37;3.17;;;29.60;85.30;;;;;;5035542;28;20475;-87
2021/07/26 11:13:24;;;;;;;2.90;2.70;;;29.90;81.90;;;;;;5035661;28;20790;-88
2021/07/26 11:15:52;;;;;;;2.90;2.70;;;30.30;78.50;;;;;;5035220;28;20455;-87
2021/07/26 11:18:20;;;;;;;2.63;2.50;;;30.70;79.40;;;;;;5035243;28;20463;-88
2021/07/26 11:21:17;;;;;;;3.10;2.90;;;31.10;77.60;;;;;;5035292;28;20451;-88
2021/07/26 11:23:49;;;;;;;2.60;2.40;;;31.30;74.70;;;;;;5034840;28;20971;-88
2021/07/26 11:26:22;;;;;;;2.93;2.73;;;31.40;72.90;;;;;;5035219;28;20475;-87
2021/07/26 11:28:54;;;;;;;2.80;2.60;;;31.30;73.70;;;;;;5034885;28;20490;-88
2021/07/26 11:31:23;;;;;;;3.23;3.03;;;31.40;74.90;;;;;;5034866;28;20891;-88
2021/07/26 11:33:51;;;;;;;3.00;2.80;;;31.50;73.50;;;;;;5035095;28;20455;-88
2021/07/26 11:36:18;;;;;;;3.80;3.50;;;31.50;72.70;;;;;;5034774;28;20471;-88
2021/07/26 11:39:05;;;;;;;3.53;3.00;;;31.50;73.10;;;;;;5035074;28;20443;-87
2021/07/26 11:41:33;;;;;;;3.50;3.23;;;31.30;71.60;;;;;;5035010;28;20478;-87
2021/07/26 11:44:00;;;;;;;3.37;3.17;;;31.30;71.10;;;;;;5041101;28;20517;-87
2021/07/26 11:46:29;;;;;;;3.87;3.57;;;31.20;71.20;;;;;;5039349;28;20478;-88
2021/07/26 11:48:57;;;;;;;3.67;3.37;;;31.10;71.70;;;;;;5034770;28;20446;-87
2021/07/26 11:51:29;;;;;;;3.47;3.17;;;31.00;74.40;;;;;;5034269;28;20473;-88
2021/07/26 11:54:00;;;;;;;4.07;3.20;;;30.80;72.80;;;;;;5034627;28;20810;-88
2021/07/26 11:56:29;;;;;;;3.30;3.00;;;30.50;74.20;;;;;;5034498;28;20442;-87
2021/07/26 11:59:22;;;;;;;4.13;3.20;;;30.30;76.00;;;;;;5034355;28;20856;-87
2021/07/26 12:01:56;;;;;;;3.33;3.03;;;29.90;77.20;;;;;;5034322;28;20457;-87
2021/07/26 12:04:26;;;;;;;3.93;3.03;;;29.40;75.10;;;;;;5034440;28;20440;-87
2021/07/26 12:07:01;;;;;;;3.73;3.43;;;28.90;77.80;;;;;;5034390;28;20476;-87
2021/07/26 12:09:28;;;;;;;3.63;3.40;;;28.70;80.20;;;;;;5034476;28;20478;-87
2021/07/26 12:12:07;;;;;;;5.20;3.57;;;28.50;79.50;;;;;;5043318;28;20475;-87
2021/07/26 12:14:35;;;;;;;3.43;3.13;;;28.20;81.00;;;;;;5059282;28;20521;-87
2021/07/26 12:17:07;;;;;;;4.17;3.13;;;28.00;81.30;;;;;;5056928;28;20449;-87
2021/07/26 12:19:35;;;;;;;3.73;3.47;;;27.80;81.90;;;;;;5034320;28;20452;-87
2021/07/26 12:22:19;;;;;;;3.53;3.17;;;27.50;82.20;;;;;;5033997;28;20468;-87
2021/07/26 12:24:48;;;;;;;3.77;3.47;;;27.10;85.90;;;;;;5033890;28;20463;-86
2021/07/26 12:27:37;;;;;;;4.10;3.30;;;26.60;87.30;;;;;;5033810;28;20545;-87
2021/07/26 12:30:10;;;;;;;3.70;3.50;;;26.20;91.50;;;;;;5033724;28;20454;-87
2021/07/26 12:32:50;;;;;;;4.70;4.20;;;25.60;93.00;;;;;;5033655;28;20482;-86
2021/07/26 12:35:24;;;;;;;3.60;3.40;;;25.50;94.40;;;;;;5033805;28;20515;-86
2021/07/26 12:38:06;;;;;;;5.50;4.27;;;25.10;95.50;;;;;;5033279;28;20464;-87
2021/07/26 12:40:33;;;;;;;5.43;4.60;;;24.60;96.60;;;;;;5033643;28;20444;-86
2021/07/26 12:43:09;;;;;;;4.70;4.30;;;24.30;97.50;;;;;;5033170;28;20471;-86
2021/07/26 12:45:38;;;;;;;4.37;4.00;;;24.00;98.50;;;;;;5033324;28;20848;-87
2021/07/26 12:48:16;;;;;;;4.80;4.40;;;24.00;98.70;;;;;;5033579;28;20468;-87
2021/07/26 12:50:44;;;;;;;5.10;4.70;;;23.80;99.00;;;;;;5033195;28;20440;-86
2021/07/26 12:53:11;;;;;;;4.67;4.27;;;23.70;99.70;;;;;;5032819;28;20480;-86
2021/07/26 12:55:39;;;;;;;4.60;4.30;;;23.70;99.90;;;;;;5033263;28;20495;-87
2021/07/26 12:58:06;;;;;;;5.13;4.10;;;23.40;99.90;;;;;;5033594;28;20453;-86